Time;durP1;ratioP1;P1;durP2;ratioP2;P2;SDS_P1;SDS_P2;PMS_P1;PMS_P2;Temp;Humidity;BMP_temperature;BMP_pressure;BME280_temperature;BME280_humidity;BME280_pressure;Samples;Min_cycle;Max_cycle;Signal;HPM_P1;HPM_P2
2023/08/09 00:02:23;;;;;;;9.57;2.38;;;12.60;99.90;;;;;;5014827;28;20050;-63
2023/08/09 00:04:50;;;;;;;7.15;2.47;;;12.60;99.90;;;;;;5020189;28;20049;-65
2023/08/09 00:07:17;;;;;;;4.55;2.03;;;12.50;99.90;;;;;;5020782;28;20077;-65
2023/08/09 00:09:44;;;;;;;8.77;2.38;;;12.50;99.90;;;;;;5019979;28;20038;-66
2023/08/09 00:12:10;;;;;;;11.95;2.83;;;12.50;99.90;;;;;;5020088;28;20593;-65
2023/08/09 00:14:37;;;;;;;7.78;2.60;;;12.50;99.90;;;;;;5023420;28;20061;-70
2023/08/09 00:17:04;;;;;;;13.32;3.53;;;12.50;99.90;;;;;;5021260;28;20042;-69
2023/08/09 00:19:31;;;;;;;11.10;2.70;;;12.40;99.90;;;;;;5022527;28;20149;-64
2023/08/09 00:21:58;;;;;;;6.95;2.70;;;12.40;99.90;;;;;;5015113;28;20038;-65
2023/08/09 00:24:25;;;;;;;11.60;2.70;;;12.40;99.90;;;;;;5016893;28;20049;-68
2023/08/09 00:26:52;;;;;;;6.10;1.95;;;12.30;99.90;;;;;;5015694;28;20454;-68
2023/08/09 00:29:18;;;;;;;5.50;2.20;;;12.30;99.90;;;;;;5020657;28;20050;-67
2023/08/09 00:31:46;;;;;;;4.55;2.10;;;12.30;99.90;;;;;;5018602;28;20574;-66
2023/08/09 00:34:13;;;;;;;7.10;2.55;;;12.30;99.90;;;;;;5017933;28;20038;-65
2023/08/09 00:36:40;;;;;;;9.07;1.95;;;12.30;99.90;;;;;;5021084;28;20041;-70
2023/08/09 00:39:08;;;;;;;7.90;2.13;;;12.30;99.90;;;;;;5016826;28;20743;-67
2023/08/09 00:41:35;;;;;;;10.65;3.78;;;12.30;99.90;;;;;;5019152;28;20129;-71
2023/08/09 00:44:02;;;;;;;8.93;2.85;;;12.20;99.90;;;;;;5026630;28;20045;-69
2023/08/09 00:46:29;;;;;;;10.52;2.45;;;12.20;99.90;;;;;;5023182;28;20045;-70
2023/08/09 00:48:56;;;;;;;10.05;2.08;;;12.20;99.90;;;;;;5025010;28;20087;-64
2023/08/09 00:51:23;;;;;;;19.42;3.42;;;12.20;99.90;;;;;;5024585;28;20041;-67
2023/08/09 00:53:50;;;;;;;10.32;3.40;;;12.20;99.90;;;;;;5021562;28;20077;-71
2023/08/09 00:56:17;;;;;;;8.70;3.00;;;12.10;99.90;;;;;;5022523;28;20041;-63
2023/08/09 00:58:44;;;;;;;7.22;2.60;;;12.10;99.90;;;;;;5009947;28;20061;-63
2023/08/09 01:01:11;;;;;;;14.27;3.08;;;12.10;99.90;;;;;;5021323;28;20162;-71
2023/08/09 01:03:39;;;;;;;11.68;2.40;;;12.10;99.90;;;;;;5021605;28;20224;-66
2023/08/09 01:06:17;;;;;;;6.18;1.83;;;12.10;99.90;;;;;;5021355;28;20469;-64
2023/08/09 01:09:09;;;;;;;5.53;2.30;;;12.00;99.90;;;;;;5023210;28;20193;-68
2023/08/09 01:11:48;;;;;;;8.35;1.90;;;12.00;99.90;;;;;;5024835;28;20550;-71
2023/08/09 01:14:22;;;;;;;9.75;2.17;;;12.00;99.90;;;;;;5023662;28;20045;-69
2023/08/09 01:16:51;;;;;;;7.90;2.67;;;11.90;99.90;;;;;;5020545;28;20096;-70
2023/08/09 01:19:33;;;;;;;9.82;2.22;;;11.80;99.90;;;;;;5021976;28;20057;-69
2023/08/09 01:22:06;;;;;;;9.73;2.92;;;11.80;99.90;;;;;;5025091;28;20033;-64
2023/08/09 01:24:33;;;;;;;5.60;1.50;;;11.70;99.90;;;;;;5021217;28;20107;-68
2023/08/09 01:27:00;;;;;;;9.07;2.60;;;11.80;99.90;;;;;;5024504;28;20789;-65
2023/08/09 01:29:28;;;;;;;8.82;2.17;;;11.70;99.90;;;;;;5023308;28;20053;-66
2023/08/09 01:31:55;;;;;;;6.05;1.83;;;11.70;99.90;;;;;;5021754;28;20060;-63
2023/08/09 01:34:22;;;;;;;9.15;2.22;;;11.70;99.90;;;;;;5038177;28;20096;-63
2023/08/09 01:36:51;;;;;;;9.95;2.67;;;11.60;99.90;;;;;;5023344;28;20480;-68
2023/08/09 01:39:24;;;;;;;6.20;2.35;;;11.60;99.90;;;;;;5019577;28;20041;-65
2023/08/09 01:41:52;;;;;;;8.48;1.92;;;11.50;99.90;;;;;;5035131;28;20395;-68
2023/08/09 01:44:20;;;;;;;7.68;2.75;;;11.50;99.90;;;;;;5021798;28;20316;-63
2023/08/09 01:46:47;;;;;;;8.68;2.60;;;11.50;99.90;;;;;;5036089;28;20486;-70
2023/08/09 01:49:17;;;;;;;6.70;2.10;;;11.50;99.90;;;;;;5020202;28;20049;-67
2023/08/09 01:51:45;;;;;;;7.13;2.55;;;11.40;99.90;;;;;;5018032;28;20045;-75
2023/08/09 01:54:12;;;;;;;7.70;2.45;;;11.40;99.90;;;;;;5015512;28;20049;-63
2023/08/09 01:56:41;;;;;;;8.63;2.05;;;11.40;99.90;;;;;;5020889;28;20316;-71
2023/08/09 01:59:09;;;;;;;8.48;1.88;;;11.40;99.90;;;;;;5031825;28;20071;-67
2023/08/09 02:01:36;;;;;;;14.38;3.00;;;11.40;99.90;;;;;;5027949;28;20045;-67
2023/08/09 02:04:04;;;;;;;6.63;2.47;;;11.30;99.90;;;;;;5036135;28;20041;-64
2023/08/09 02:06:34;;;;;;;9.57;2.85;;;11.40;99.90;;;;;;5022749;28;20049;-68
2023/08/09 02:09:02;;;;;;;6.35;2.10;;;11.40;99.90;;;;;;5021123;28;20054;-71
2023/08/09 02:11:31;;;;;;;4.57;2.25;;;11.40;99.90;;;;;;5023316;28;20047;-64
2023/08/09 02:13:58;;;;;;;21.48;3.08;;;11.30;99.90;;;;;;5021526;28;20380;-63
2023/08/09 02:16:25;;;;;;;9.23;2.03;;;11.30;99.90;;;;;;5021913;28;20073;-64
2023/08/09 02:18:52;;;;;;;9.85;2.33;;;11.30;99.90;;;;;;5020140;28;20040;-67
2023/08/09 02:21:19;;;;;;;8.20;1.98;;;11.20;99.90;;;;;;5022950;28;20468;-68
2023/08/09 02:23:46;;;;;;;5.25;1.75;;;11.20;99.90;;;;;;5022518;28;20041;-64
2023/08/09 02:26:15;;;;;;;11.88;3.47;;;11.20;99.90;;;;;;5019200;28;20114;-66
2023/08/09 02:28:42;;;;;;;5.80;2.65;;;11.20;99.90;;;;;;5022978;28;20053;-69
2023/08/09 02:31:10;;;;;;;10.77;2.50;;;11.20;99.90;;;;;;5020170;28;20041;-66
2023/08/09 02:33:38;;;;;;;10.82;3.28;;;11.20;99.90;;;;;;5022379;28;20064;-63
2023/08/09 02:36:05;;;;;;;6.95;2.67;;;11.10;99.90;;;;;;5018884;28;20077;-70
2023/08/09 02:38:33;;;;;;;9.48;2.25;;;11.20;99.90;;;;;;5023850;28;20475;-68
2023/08/09 02:41:00;;;;;;;6.75;2.13;;;11.10;99.90;;;;;;5023413;28;20045;-70
2023/08/09 02:43:28;;;;;;;10.20;3.88;;;11.10;99.90;;;;;;5022113;28;20146;-67
2023/08/09 02:45:55;;;;;;;13.70;3.22;;;11.10;99.90;;;;;;5009660;28;20057;-62
2023/08/09 02:48:22;;;;;;;9.68;3.13;;;11.10;99.90;;;;;;5023930;28;20156;-68
2023/08/09 02:50:51;;;;;;;12.68;3.50;;;11.00;99.90;;;;;;5020712;28;20049;-67
2023/08/09 02:53:17;;;;;;;11.88;2.17;;;11.00;99.90;;;;;;5021248;28;20123;-65
2023/08/09 02:55:44;;;;;;;18.75;2.63;;;11.00;99.90;;;;;;5021762;28;20037;-64
2023/08/09 02:58:12;;;;;;;9.90;2.85;;;11.00;99.90;;;;;;5016764;28;20065;-67
2023/08/09 03:00:39;;;;;;;10.43;2.90;;;11.00;99.90;;;;;;5020779;28;20049;-63
2023/08/09 03:03:06;;;;;;;11.35;2.40;;;11.00;99.90;;;;;;5019048;28;20056;-68
2023/08/09 03:05:34;;;;;;;4.70;2.08;;;10.90;99.90;;;;;;5021150;28;20075;-66
2023/08/09 03:08:01;;;;;;;7.78;3.10;;;10.90;99.90;;;;;;5020769;28;20140;-63
2023/08/09 03:10:29;;;;;;;8.50;1.98;;;10.90;99.90;;;;;;5020048;28;20045;-72
2023/08/09 03:12:56;;;;;;;6.85;2.08;;;10.80;99.90;;;;;;5019333;28;20045;-70
2023/08/09 03:15:24;;;;;;;7.47;1.85;;;10.80;99.90;;;;;;5015593;28;20058;-64
2023/08/09 03:17:51;;;;;;;7.97;2.83;;;10.80;99.90;;;;;;5021188;28;20049;-66
2023/08/09 03:20:18;;;;;;;6.38;2.58;;;10.70;99.90;;;;;;5021451;28;20037;-69
2023/08/09 03:22:45;;;;;;;7.90;2.83;;;10.80;99.90;;;;;;5021061;28;20068;-65
2023/08/09 03:25:15;;;;;;;4.75;1.98;;;10.80;99.90;;;;;;5018228;28;20048;-67
2023/08/09 03:27:45;;;;;;;8.98;1.95;;;10.80;99.90;;;;;;5031151;28;20056;-64
2023/08/09 03:30:14;;;;;;;7.55;2.05;;;10.80;99.90;;;;;;5036849;28;20075;-66
2023/08/09 03:32:41;;;;;;;7.30;1.88;;;10.80;99.90;;;;;;5019490;28;20055;-70
2023/08/09 03:35:09;;;;;;;8.77;1.98;;;10.90;99.90;;;;;;5023796;28;20728;-65
2023/08/09 03:37:36;;;;;;;5.93;1.83;;;10.90;99.90;;;;;;5012591;28;20591;-69
2023/08/09 03:40:06;;;;;;;9.93;2.35;;;10.90;99.90;;;;;;5018391;28;20045;-67
2023/08/09 03:42:34;;;;;;;2.17;1.45;;;11.00;99.90;;;;;;5012085;28;20069;-65
2023/08/09 03:45:00;;;;;;;9.27;1.50;;;11.10;99.90;;;;;;5013002;28;20076;-69
2023/08/09 03:47:28;;;;;;;5.07;1.75;;;11.10;99.90;;;;;;5020162;28;20049;-66
2023/08/09 03:49:55;;;;;;;5.07;1.33;;;11.20;99.90;;;;;;5018905;28;20079;-67
2023/08/09 03:52:22;;;;;;;7.50;1.45;;;11.30;99.90;;;;;;5020903;28;20054;-67
2023/08/09 03:54:52;;;;;;;4.13;1.77;;;11.40;99.90;;;;;;5019128;28;20060;-71
2023/08/09 03:57:19;;;;;;;5.10;1.20;;;11.40;99.90;;;;;;5021587;28;20038;-63
2023/08/09 03:59:46;;;;;;;9.25;2.13;;;11.50;99.90;;;;;;5019487;28;20856;-71
2023/08/09 04:02:13;;;;;;;7.28;2.45;;;11.50;99.90;;;;;;5018908;28;20052;-62
2023/08/09 04:04:41;;;;;;;5.53;1.85;;;11.60;99.90;;;;;;5021945;28;20045;-64
2023/08/09 04:07:08;;;;;;;4.72;1.25;;;11.70;99.90;;;;;;5021082;28;20049;-65
2023/08/09 04:09:35;;;;;;;3.45;1.30;;;11.80;99.90;;;;;;5022962;28;20076;-68
2023/08/09 04:12:03;;;;;;;8.77;1.98;;;11.90;99.90;;;;;;5021642;28;20049;-65
2023/08/09 04:14:30;;;;;;;8.43;3.30;;;12.00;99.90;;;;;;5013510;28;20111;-66
2023/08/09 04:16:57;;;;;;;5.65;1.45;;;12.10;99.90;;;;;;5022749;28;20038;-67
2023/08/09 04:19:25;;;;;;;3.30;1.83;;;12.20;99.90;;;;;;5017607;28;20840;-70
2023/08/09 04:21:53;;;;;;;4.35;1.30;;;12.30;99.90;;;;;;5021052;28;20118;-70
2023/08/09 04:24:20;;;;;;;2.55;1.27;;;12.40;99.90;;;;;;5026963;28;20049;-65
2023/08/09 04:26:47;;;;;;;4.07;0.90;;;12.50;99.90;;;;;;5026284;28;20045;-68
2023/08/09 04:29:14;;;;;;;7.88;1.80;;;12.50;99.90;;;;;;5025803;28;20438;-63
2023/08/09 04:31:40;;;;;;;5.10;1.20;;;12.60;99.90;;;;;;5023136;28;20073;-65
2023/08/09 04:34:08;;;;;;;4.78;1.25;;;12.60;99.90;;;;;;5021724;28;20056;-68
2023/08/09 04:36:35;;;;;;;3.63;1.48;;;12.70;99.90;;;;;;5024923;28;20124;-64
2023/08/09 04:39:06;;;;;;;3.30;1.23;;;12.70;99.90;;;;;;5024371;28;20049;-65
2023/08/09 04:41:33;;;;;;;2.00;1.08;;;12.80;99.90;;;;;;5026103;28;20053;-66
2023/08/09 04:44:00;;;;;;;4.07;1.67;;;12.90;99.90;;;;;;5025064;28;20056;-64
2023/08/09 04:46:29;;;;;;;4.07;1.33;;;12.80;99.90;;;;;;5023930;28;20141;-64
2023/08/09 04:48:57;;;;;;;4.57;1.05;;;12.80;99.90;;;;;;5017809;28;20342;-64
2023/08/09 04:51:24;;;;;;;5.57;1.35;;;12.90;99.90;;;;;;5025830;28;20064;-66
2023/08/09 04:53:51;;;;;;;3.40;1.00;;;12.90;99.90;;;;;;5021687;28;20053;-63
2023/08/09 04:56:18;;;;;;;6.82;1.38;;;12.90;99.90;;;;;;5024956;28;20077;-66
2023/08/09 04:58:44;;;;;;;2.92;1.33;;;12.90;99.90;;;;;;5025337;28;20077;-67
2023/08/09 05:01:11;;;;;;;4.85;1.42;;;12.90;99.90;;;;;;5022844;28;20069;-62
2023/08/09 05:03:38;;;;;;;5.53;1.60;;;12.90;99.90;;;;;;5024889;28;20159;-64
2023/08/09 05:06:05;;;;;;;7.10;2.33;;;12.90;99.90;;;;;;5024042;28;20045;-70
2023/08/09 05:08:32;;;;;;;4.72;1.50;;;13.00;99.90;;;;;;5023094;28;20095;-63
2023/08/09 05:10:59;;;;;;;8.75;1.48;;;13.00;99.90;;;;;;5023996;28;20606;-64
2023/08/09 05:13:26;;;;;;;3.92;2.33;;;13.00;99.90;;;;;;5024297;28;20547;-66
2023/08/09 05:15:53;;;;;;;2.30;1.45;;;13.00;99.90;;;;;;5021172;28;20046;-64
2023/08/09 05:18:20;;;;;;;5.03;1.85;;;13.00;99.90;;;;;;5022648;28;20049;-65
2023/08/09 05:20:47;;;;;;;6.40;2.10;;;13.10;99.90;;;;;;5024484;28;20033;-67
2023/08/09 05:23:14;;;;;;;5.05;1.33;;;13.10;99.90;;;;;;5026862;28;20482;-68
2023/08/09 05:25:40;;;;;;;4.80;1.90;;;13.20;99.90;;;;;;5025585;28;20586;-62
2023/08/09 05:28:07;;;;;;;8.70;2.75;;;13.20;99.90;;;;;;5024596;28;20135;-68
2023/08/09 05:30:34;;;;;;;2.60;1.70;;;13.30;99.90;;;;;;5022999;28;20404;-65
2023/08/09 05:33:01;;;;;;;4.43;1.67;;;13.30;99.90;;;;;;5022182;28;20046;-65
2023/08/09 05:35:28;;;;;;;5.38;1.67;;;13.30;99.90;;;;;;5021405;28;20578;-65
2023/08/09 05:37:55;;;;;;;5.90;2.97;;;13.30;99.90;;;;;;5020204;28;20120;-67
2023/08/09 05:40:22;;;;;;;5.30;1.42;;;13.30;99.90;;;;;;5021942;28;20050;-66
2023/08/09 05:42:49;;;;;;;4.40;1.60;;;13.40;99.90;;;;;;5022392;28;20061;-64
2023/08/09 05:45:15;;;;;;;8.07;2.30;;;13.30;99.90;;;;;;5020533;28;20045;-64
2023/08/09 05:47:42;;;;;;;2.25;1.52;;;13.40;99.90;;;;;;5022862;28;20091;-66
2023/08/09 05:50:10;;;;;;;2.80;1.05;;;13.30;99.90;;;;;;5020469;28;20046;-63
2023/08/09 05:52:37;;;;;;;5.57;1.33;;;13.40;99.90;;;;;;5022301;28;20049;-69
2023/08/09 05:55:05;;;;;;;1.55;0.85;;;13.30;99.90;;;;;;5022616;28;20052;-66
2023/08/09 05:57:32;;;;;;;4.78;2.17;;;13.30;99.90;;;;;;5020977;28;20125;-68
2023/08/09 05:59:59;;;;;;;8.02;2.20;;;13.30;99.90;;;;;;5024020;28;20056;-63
2023/08/09 06:02:26;;;;;;;9.15;2.20;;;13.20;99.90;;;;;;5024258;28;20073;-70
2023/08/09 06:04:53;;;;;;;8.65;1.73;;;13.20;99.90;;;;;;5019446;28;20045;-65
2023/08/09 06:07:20;;;;;;;3.25;1.50;;;13.10;99.90;;;;;;5018964;28;20081;-68
2023/08/09 06:09:47;;;;;;;6.15;2.22;;;13.00;99.90;;;;;;5021707;28;20623;-65
2023/08/09 06:12:14;;;;;;;8.48;1.67;;;12.90;99.90;;;;;;5020649;28;20092;-66
2023/08/09 06:14:41;;;;;;;6.32;1.83;;;12.90;99.90;;;;;;5022115;28;20103;-72
2023/08/09 06:17:08;;;;;;;8.45;2.03;;;12.90;99.90;;;;;;5021207;28;20391;-66
2023/08/09 06:19:35;;;;;;;9.82;3.15;;;13.00;99.90;;;;;;5020221;28;20145;-64
2023/08/09 06:22:02;;;;;;;6.53;2.10;;;13.00;99.90;;;;;;5021864;28;20045;-64
2023/08/09 06:24:29;;;;;;;9.05;1.95;;;13.10;99.90;;;;;;5021483;28;20111;-69
2023/08/09 06:26:56;;;;;;;7.07;1.77;;;13.10;99.90;;;;;;5023347;28;20045;-71
2023/08/09 06:29:23;;;;;;;3.45;1.90;;;13.10;99.90;;;;;;5021666;28;20476;-67
2023/08/09 06:31:50;;;;;;;6.07;1.65;;;13.20;99.90;;;;;;5023787;28;20037;-69
2023/08/09 06:34:17;;;;;;;5.50;1.63;;;13.20;99.90;;;;;;5017092;28;20041;-65
2023/08/09 06:36:44;;;;;;;3.90;1.33;;;13.30;99.90;;;;;;5015811;28;20045;-69
2023/08/09 06:39:11;;;;;;;3.00;1.52;;;13.30;99.90;;;;;;5018009;28;20057;-67
2023/08/09 06:41:38;;;;;;;4.10;1.65;;;13.20;99.90;;;;;;5022699;28;20056;-64
2023/08/09 06:44:05;;;;;;;5.63;2.03;;;13.20;99.90;;;;;;5022160;28;20115;-68
2023/08/09 06:46:32;;;;;;;2.13;1.25;;;13.20;99.90;;;;;;5023305;28;20053;-68
2023/08/09 06:48:59;;;;;;;4.55;1.23;;;13.30;99.90;;;;;;5020717;28;20103;-65
2023/08/09 06:51:26;;;;;;;2.95;1.67;;;13.30;99.90;;;;;;5021477;28;20046;-67
2023/08/09 06:53:53;;;;;;;2.53;0.85;;;13.30;99.90;;;;;;5018031;28;20065;-70
2023/08/09 06:56:20;;;;;;;11.27;2.72;;;13.30;99.90;;;;;;5024442;28;20041;-65
2023/08/09 06:58:47;;;;;;;6.90;1.67;;;13.30;99.90;;;;;;5019876;28;20069;-69
2023/08/09 07:01:14;;;;;;;4.38;1.50;;;13.30;99.90;;;;;;5021212;28;20053;-68
2023/08/09 07:03:41;;;;;;;7.35;1.85;;;13.40;99.90;;;;;;5021660;28;20037;-64
2023/08/09 07:06:08;;;;;;;4.93;1.48;;;13.40;99.90;;;;;;5021837;28;20046;-68
2023/08/09 07:08:34;;;;;;;4.90;1.90;;;13.50;99.90;;;;;;5019546;28;20081;-66
2023/08/09 07:11:01;;;;;;;4.82;1.13;;;13.60;99.90;;;;;;5021358;28;20064;-66
2023/08/09 07:13:28;;;;;;;6.57;3.33;;;13.60;99.90;;;;;;5023819;28;20046;-67
2023/08/09 07:15:55;;;;;;;7.45;1.70;;;13.70;99.90;;;;;;5018131;28;20107;-65
2023/08/09 07:18:25;;;;;;;5.22;1.67;;;13.70;99.90;;;;;;5017910;28;20100;-65
2023/08/09 07:20:52;;;;;;;3.40;1.05;;;13.80;99.90;;;;;;5018960;28;20041;-73
2023/08/09 07:23:19;;;;;;;12.73;1.52;;;13.90;99.90;;;;;;5017118;28;20041;-67
2023/08/09 07:26:06;;;;;;;3.88;2.20;;;14.00;99.90;;;;;;5020398;28;20045;-73
2023/08/09 07:28:33;;;;;;;6.05;1.67;;;14.00;99.90;;;;;;5023868;28;20128;-68
2023/08/09 07:31:00;;;;;;;7.40;2.20;;;13.80;99.90;;;;;;5018210;28;20120;-64
2023/08/09 07:33:27;;;;;;;6.20;2.03;;;13.80;99.90;;;;;;5020995;28;20049;-69
2023/08/09 07:35:54;;;;;;;4.55;1.80;;;13.60;99.90;;;;;;5020787;28;20100;-65
2023/08/09 07:38:21;;;;;;;4.07;1.75;;;13.40;99.90;;;;;;5018401;28;20530;-66
2023/08/09 07:40:48;;;;;;;5.38;1.65;;;13.30;99.90;;;;;;5022275;28;20095;-67
2023/08/09 07:43:15;;;;;;;4.88;2.03;;;13.20;99.90;;;;;;5020964;28;20077;-65
2023/08/09 07:45:45;;;;;;;4.50;1.35;;;13.10;99.90;;;;;;5021747;28;20056;-65
2023/08/09 07:48:12;;;;;;;3.92;1.25;;;13.10;99.90;;;;;;5021999;28;20056;-66
2023/08/09 07:50:39;;;;;;;6.82;1.38;;;13.30;99.90;;;;;;5021480;28;20478;-67
2023/08/09 07:53:06;;;;;;;6.15;1.52;;;13.30;99.90;;;;;;5020220;28;20121;-63
2023/08/09 07:55:34;;;;;;;7.03;2.25;;;13.50;99.90;;;;;;5017246;28;20034;-65
2023/08/09 07:58:00;;;;;;;10.02;1.30;;;13.50;99.90;;;;;;5025462;28;20053;-65
2023/08/09 08:00:27;;;;;;;8.35;1.75;;;13.50;99.90;;;;;;5022894;28;20775;-63
2023/08/09 08:03:09;;;;;;;2.67;1.17;;;13.40;99.90;;;;;;5021915;28;20046;-66
2023/08/09 08:05:39;;;;;;;3.88;1.42;;;13.30;99.90;;;;;;5025295;28;20038;-65
2023/08/09 08:08:05;;;;;;;4.15;1.33;;;13.10;99.90;;;;;;5024925;28;20075;-70
2023/08/09 08:10:32;;;;;;;3.47;1.52;;;12.90;99.90;;;;;;5024027;28;20128;-69
2023/08/09 08:13:00;;;;;;;5.45;1.50;;;12.70;99.90;;;;;;5024876;28;20084;-64
2023/08/09 08:15:27;;;;;;;4.15;1.30;;;12.50;99.90;;;;;;5025928;28;20088;-66
2023/08/09 08:17:55;;;;;;;3.15;0.90;;;12.40;99.90;;;;;;5024951;28;20108;-64
2023/08/09 08:20:22;;;;;;;5.43;1.13;;;12.30;99.90;;;;;;5024033;28;20518;-67
2023/08/09 08:22:50;;;;;;;5.20;1.30;;;12.20;99.90;;;;;;5028274;28;20140;-72
2023/08/09 08:25:17;;;;;;;3.42;1.15;;;12.20;99.90;;;;;;5022696;28;20749;-66
2023/08/09 08:27:45;;;;;;;2.13;1.33;;;12.20;99.90;;;;;;5026170;28;20810;-65
2023/08/09 08:30:14;;;;;;;4.32;1.05;;;12.10;99.90;;;;;;5021606;28;20067;-66
2023/08/09 08:32:41;;;;;;;5.75;0.75;;;12.20;99.90;;;;;;5021555;28;20057;-68
2023/08/09 08:35:13;;;;;;;4.22;1.85;;;12.30;99.90;;;;;;5023384;28;20447;-66
2023/08/09 08:37:41;;;;;;;1.75;0.98;;;12.40;99.90;;;;;;5018627;28;20175;-68
2023/08/09 08:40:17;;;;;;;2.33;1.35;;;12.50;99.90;;;;;;5021488;28;20531;-70
2023/08/09 08:42:45;;;;;;;12.00;2.35;;;12.70;99.90;;;;;;5022079;28;20075;-68
2023/08/09 08:45:15;;;;;;;4.80;1.35;;;12.80;99.90;;;;;;5022620;28;20052;-64
2023/08/09 08:47:44;;;;;;;6.30;1.70;;;13.10;99.90;;;;;;5022436;28;20057;-63
2023/08/09 08:50:13;;;;;;;4.18;1.00;;;13.20;99.90;;;;;;5024013;28;20232;-68
2023/08/09 08:52:42;;;;;;;3.15;1.65;;;13.30;99.90;;;;;;5025302;28;20048;-67
2023/08/09 08:55:12;;;;;;;2.63;0.80;;;13.30;99.90;;;;;;5020489;28;20966;-66
2023/08/09 08:57:40;;;;;;;2.35;1.30;;;13.40;99.90;;;;;;5023257;28;20045;-64
2023/08/09 09:00:15;;;;;;;3.65;1.42;;;13.50;99.90;;;;;;5022894;28;20057;-66
2023/08/09 09:02:54;;;;;;;4.00;1.55;;;13.60;99.90;;;;;;5020522;28;20048;-65
2023/08/09 09:05:22;;;;;;;4.85;1.27;;;13.70;99.90;;;;;;5021688;28;20862;-66
2023/08/09 09:07:50;;;;;;;9.18;2.22;;;13.80;99.90;;;;;;5024682;28;20132;-65
2023/08/09 09:10:19;;;;;;;5.35;1.92;;;13.80;99.90;;;;;;5022586;28;20046;-67
2023/08/09 09:12:50;;;;;;;1.95;0.88;;;13.90;99.90;;;;;;5024958;28;20450;-72
2023/08/09 09:15:18;;;;;;;6.50;1.52;;;14.00;99.90;;;;;;5023037;28;20054;-67
2023/08/09 09:17:46;;;;;;;4.82;1.70;;;14.00;99.90;;;;;;5020849;28;20148;-71
2023/08/09 09:20:21;;;;;;;5.97;1.67;;;14.10;99.90;;;;;;5023136;28;20045;-66
2023/08/09 09:22:48;;;;;;;5.20;1.92;;;14.10;99.90;;;;;;5024209;28;20037;-68
2023/08/09 09:25:17;;;;;;;4.93;1.40;;;14.30;99.90;;;;;;5021779;28;20056;-66
2023/08/09 09:27:50;;;;;;;9.85;1.75;;;14.40;99.90;;;;;;5023608;28;20092;-66
2023/08/09 09:30:19;;;;;;;5.68;1.77;;;14.60;99.90;;;;;;5019269;28;20127;-64
2023/08/09 09:32:58;;;;;;;5.25;1.52;;;14.70;99.90;;;;;;5023301;28;20057;-67
2023/08/09 09:35:27;;;;;;;6.93;2.47;;;14.70;99.90;;;;;;5023333;28;20503;-66
2023/08/09 09:37:58;;;;;;;3.65;1.67;;;14.70;99.90;;;;;;5026341;28;20036;-67
2023/08/09 09:40:36;;;;;;;3.70;1.58;;;14.70;99.90;;;;;;5023649;28;20041;-67
2023/08/09 09:43:05;;;;;;;3.72;1.20;;;14.70;99.90;;;;;;5022077;28;20494;-69
2023/08/09 09:45:33;;;;;;;5.10;1.40;;;14.80;99.90;;;;;;5022979;28;20057;-67
2023/08/09 09:48:01;;;;;;;4.32;1.23;;;14.80;99.90;;;;;;5025862;28;20049;-66
2023/08/09 09:50:34;;;;;;;7.60;2.08;;;14.80;99.90;;;;;;5021491;28;20040;-69
2023/08/09 09:53:02;;;;;;;2.90;1.00;;;14.90;99.90;;;;;;5023108;28;20037;-67
2023/08/09 09:55:30;;;;;;;5.30;1.38;;;15.00;99.90;;;;;;5019761;28;20045;-65
2023/08/09 09:57:58;;;;;;;4.13;1.55;;;15.10;99.90;;;;;;5023527;28;20501;-69
2023/08/09 10:00:27;;;;;;;6.32;1.23;;;15.20;99.90;;;;;;5023181;28;20103;-67
2023/08/09 10:02:57;;;;;;;2.67;1.00;;;15.20;99.90;;;;;;5022111;28;20128;-66
2023/08/09 10:05:35;;;;;;;5.25;1.75;;;15.30;99.90;;;;;;5022934;28;20048;-63
2023/08/09 10:08:11;;;;;;;8.32;1.98;;;15.50;99.90;;;;;;5019641;28;20148;-72
2023/08/09 10:10:43;;;;;;;2.38;1.38;;;15.80;99.90;;;;;;5021843;28;20045;-71
2023/08/09 10:13:16;;;;;;;7.97;1.90;;;15.80;99.90;;;;;;5019111;28;20041;-68
2023/08/09 10:15:48;;;;;;;4.50;1.55;;;15.70;99.90;;;;;;5020428;28;20132;-68
2023/08/09 10:18:20;;;;;;;3.40;1.20;;;15.70;99.90;;;;;;5020570;28;20064;-66
2023/08/09 10:20:51;;;;;;;5.35;1.23;;;15.70;99.90;;;;;;5024474;28;20049;-64
2023/08/09 10:23:24;;;;;;;3.20;1.30;;;15.80;99.90;;;;;;5020967;28;20060;-68
2023/08/09 10:25:53;;;;;;;3.05;1.00;;;15.80;99.90;;;;;;5020886;28;20049;-71
2023/08/09 10:28:42;;;;;;;5.20;1.70;;;15.90;99.90;;;;;;5019033;28;20038;-67
2023/08/09 10:31:09;;;;;;;2.97;1.30;;;15.90;99.90;;;;;;5020721;28;20053;-72
2023/08/09 10:33:41;;;;;;;5.22;1.10;;;16.00;99.90;;;;;;5021408;28;20053;-67
2023/08/09 10:36:13;;;;;;;2.58;0.85;;;15.90;99.90;;;;;;5021876;28;20052;-64
2023/08/09 10:38:40;;;;;;;2.75;1.17;;;16.00;99.90;;;;;;5017726;28;20049;-69
2023/08/09 10:41:15;;;;;;;7.30;1.77;;;16.20;99.90;;;;;;5018083;28;20057;-67
2023/08/09 10:43:42;;;;;;;6.35;1.33;;;16.30;99.90;;;;;;5024018;28;20579;-67
2023/08/09 10:46:31;;;;;;;2.33;1.75;;;16.20;99.90;;;;;;5022374;28;20128;-66
2023/08/09 10:49:00;;;;;;;3.05;1.45;;;16.10;99.90;;;;;;5023927;28;20553;-66
2023/08/09 10:51:28;;;;;;;6.35;2.30;;;16.10;99.90;;;;;;5022543;28;20050;-65
2023/08/09 10:53:57;;;;;;;2.85;1.25;;;16.10;99.90;;;;;;5020611;28;20061;-66
2023/08/09 10:56:27;;;;;;;5.68;1.40;;;16.10;99.90;;;;;;5021357;28;20050;-70
2023/08/09 10:58:54;;;;;;;3.17;1.40;;;16.10;99.90;;;;;;5023755;28;20041;-65
2023/08/09 11:01:27;;;;;;;3.33;1.17;;;16.00;99.90;;;;;;5020358;28;20049;-64
2023/08/09 11:03:54;;;;;;;4.93;1.60;;;16.10;99.90;;;;;;5017575;28;20037;-66
2023/08/09 11:06:37;;;;;;;3.75;1.40;;;16.10;99.90;;;;;;5021315;28;20442;-70
2023/08/09 11:09:13;;;;;;;4.90;0.98;;;16.10;99.90;;;;;;5020530;28;20065;-67
2023/08/09 11:11:41;;;;;;;8.70;1.52;;;16.20;99.90;;;;;;5022503;28;20053;-67
2023/08/09 11:14:11;;;;;;;8.13;1.58;;;16.30;99.90;;;;;;5019325;28;20147;-63
2023/08/09 11:16:39;;;;;;;7.30;2.10;;;16.30;99.90;;;;;;5024540;28;20391;-64
2023/08/09 11:19:19;;;;;;;5.30;1.45;;;16.30;99.90;;;;;;5022080;28;20049;-66
2023/08/09 11:22:00;;;;;;;3.90;1.42;;;16.40;99.90;;;;;;5021233;28;20593;-65
2023/08/09 11:24:29;;;;;;;8.02;1.67;;;16.40;99.90;;;;;;5021833;28;20056;-72
2023/08/09 11:26:58;;;;;;;7.03;1.50;;;16.40;99.90;;;;;;5022781;28;20044;-69
2023/08/09 11:29:27;;;;;;;9.25;1.55;;;16.40;99.90;;;;;;5032137;28;20045;-65
2023/08/09 11:31:57;;;;;;;8.15;2.58;;;16.50;99.90;;;;;;5021332;28;20511;-66
2023/08/09 11:34:25;;;;;;;7.05;1.77;;;16.60;99.90;;;;;;5015642;28;20377;-63
2023/08/09 11:36:55;;;;;;;2.92;1.40;;;16.50;99.90;;;;;;5020643;28;20411;-68
2023/08/09 11:39:24;;;;;;;3.70;1.35;;;16.40;99.90;;;;;;5019334;28;20133;-64
2023/08/09 11:41:51;;;;;;;4.20;2.00;;;16.50;99.90;;;;;;5019373;28;20049;-69
2023/08/09 11:44:22;;;;;;;4.22;1.23;;;16.60;99.90;;;;;;5018920;28;20048;-68
2023/08/09 11:46:51;;;;;;;6.68;1.45;;;16.60;99.90;;;;;;5021807;28;20103;-66
2023/08/09 11:49:25;;;;;;;3.75;1.27;;;16.70;99.90;;;;;;5022537;28;20065;-63
2023/08/09 11:51:52;;;;;;;13.15;2.92;;;16.70;99.90;;;;;;5022905;28;20056;-72
2023/08/09 11:54:19;;;;;;;4.80;1.67;;;16.90;99.90;;;;;;5017648;28;20064;-65
2023/08/09 11:56:46;;;;;;;6.38;2.90;;;16.90;99.90;;;;;;5022498;28;20045;-66
2023/08/09 11:59:18;;;;;;;6.20;1.75;;;16.70;99.90;;;;;;5019745;28;20044;-66
2023/08/09 12:01:47;;;;;;;4.35;2.00;;;16.70;99.90;;;;;;5021556;28;20053;-65
2023/08/09 12:04:17;;;;;;;6.35;1.75;;;16.80;99.90;;;;;;5019131;28;20050;-63
2023/08/09 12:06:48;;;;;;;4.55;1.70;;;16.90;99.90;;;;;;5015963;28;20037;-66
2023/08/09 12:09:36;;;;;;;7.63;2.17;;;16.90;99.90;;;;;;5020665;28;20056;-64
2023/08/09 12:12:09;;;;;;;4.30;1.42;;;16.90;99.90;;;;;;5020143;28;20131;-68
2023/08/09 12:14:44;;;;;;;6.13;1.85;;;17.00;99.90;;;;;;5019402;28;20124;-64
2023/08/09 12:17:24;;;;;;;4.95;1.58;;;17.10;99.90;;;;;;5020449;28;20222;-63
2023/08/09 12:19:56;;;;;;;8.80;2.25;;;17.20;99.90;;;;;;5019585;28;20053;-67
2023/08/09 12:22:25;;;;;;;5.25;1.85;;;17.40;99.90;;;;;;5018158;28;20057;-68
2023/08/09 12:24:53;;;;;;;2.38;1.00;;;17.50;99.90;;;;;;5019389;28;20045;-71
2023/08/09 12:27:20;;;;;;;4.57;1.35;;;17.40;99.90;;;;;;5020859;28;20077;-70
2023/08/09 12:29:47;;;;;;;9.65;2.47;;;17.40;99.90;;;;;;5018225;28;20675;-68
2023/08/09 12:32:15;;;;;;;5.82;2.15;;;17.30;99.90;;;;;;5021112;28;20103;-68
2023/08/09 12:34:42;;;;;;;7.93;2.10;;;17.20;99.90;;;;;;5018251;28;20044;-65
2023/08/09 12:37:09;;;;;;;5.72;1.52;;;17.30;99.90;;;;;;5021036;28;20042;-68
2023/08/09 12:39:36;;;;;;;5.95;1.42;;;17.40;99.90;;;;;;5019148;28;20068;-66
2023/08/09 12:42:03;;;;;;;8.85;1.58;;;17.20;99.90;;;;;;5022469;28;20890;-63
2023/08/09 12:44:32;;;;;;;2.67;1.05;;;17.10;99.90;;;;;;5023625;28;20474;-64
2023/08/09 12:46:59;;;;;;;2.95;0.82;;;17.10;99.90;;;;;;5022693;28;20474;-74
2023/08/09 12:49:26;;;;;;;2.55;1.45;;;17.20;99.90;;;;;;5021053;28;20072;-64
2023/08/09 12:51:53;;;;;;;4.57;2.33;;;17.30;99.90;;;;;;5023313;28;20064;-66
2023/08/09 12:54:20;;;;;;;3.90;1.60;;;17.40;99.90;;;;;;5023011;28;20046;-66